Time;durP1;ratioP1;P1;durP2;ratioP2;P2;SDS_P1;SDS_P2;PMS_P1;PMS_P2;Temp;Humidity;BMP_temperature;BMP_pressure;BME280_temperature;BME280_humidity;BME280_pressure;Samples;Min_cycle;Max_cycle;Signal;HPM_P1;HPM_P2
2022/06/15 00:01:13;;;;;;;1221.60;999.90;;;16.30;99.90;;;;;;4997782;28;20275;-68
2022/06/15 00:03:40;;;;;;;1212.13;999.90;;;16.30;99.90;;;;;;5012681;28;20178;-71
2022/06/15 00:06:11;;;;;;;1203.88;999.90;;;16.30;99.90;;;;;;4997306;28;20188;-69
2022/06/15 00:08:39;;;;;;;1207.95;999.90;;;16.20;99.90;;;;;;4993326;28;20276;-69
2022/06/15 00:11:07;;;;;;;1182.43;999.90;;;16.20;99.90;;;;;;5015396;28;20235;-69
2022/06/15 00:13:33;;;;;;;1169.32;999.90;;;16.20;99.90;;;;;;5010809;28;20547;-69
2022/06/15 00:15:59;;;;;;;1188.10;999.90;;;16.20;99.90;;;;;;4983318;28;20186;-69
2022/06/15 00:18:28;;;;;;;1170.72;999.90;;;16.20;99.90;;;;;;4986588;28;20211;-69
2022/06/15 00:20:57;;;;;;;1187.57;999.90;;;16.10;99.90;;;;;;4998612;28;20652;-68
2022/06/15 00:23:25;;;;;;;1151.68;999.90;;;16.10;99.90;;;;;;4998153;28;20539;-68
2022/06/15 00:25:51;;;;;;;1136.57;999.90;;;16.10;99.90;;;;;;4964581;28;20196;-69
2022/06/15 00:28:17;;;;;;;1110.43;999.90;;;16.10;99.90;;;;;;4998438;28;20199;-72
2022/06/15 00:30:45;;;;;;;1098.63;999.90;;;16.10;99.90;;;;;;5007414;28;20187;-69
2022/06/15 00:33:11;;;;;;;1097.35;999.90;;;16.00;99.90;;;;;;4997011;28;20195;-72
2022/06/15 00:35:37;;;;;;;1089.15;999.90;;;16.00;99.90;;;;;;5013295;28;20245;-69
2022/06/15 00:38:03;;;;;;;1062.35;986.13;;;15.90;99.90;;;;;;4968161;28;20219;-69
2022/06/15 00:40:29;;;;;;;1025.82;954.17;;;15.90;99.90;;;;;;4997481;28;20188;-69
2022/06/15 00:42:54;;;;;;;1036.25;963.53;;;15.90;99.90;;;;;;5008742;28;20184;-69
2022/06/15 00:45:20;;;;;;;1002.38;934.47;;;15.80;99.90;;;;;;5014240;28;20237;-70
2022/06/15 00:47:46;;;;;;;1001.67;933.85;;;15.80;99.90;;;;;;4996559;28;20749;-69
2022/06/15 00:50:25;;;;;;;975.08;909.00;;;15.70;99.90;;;;;;4994210;28;20274;-69
2022/06/15 00:53:05;;;;;;;929.20;868.25;;;15.80;99.90;;;;;;5014484;28;20202;-75
2022/06/15 00:55:33;;;;;;;855.15;802.72;;;15.80;99.90;;;;;;5011924;28;20548;-69
2022/06/15 00:58:03;;;;;;;858.58;805.70;;;15.70;99.90;;;;;;5008902;28;20203;-71
2022/06/15 01:00:29;;;;;;;762.35;718.28;;;15.70;99.90;;;;;;5013370;28;20210;-68
2022/06/15 01:02:56;;;;;;;762.80;719.38;;;15.70;99.90;;;;;;5008028;28;20194;-69
2022/06/15 01:05:26;;;;;;;749.65;706.42;;;15.70;99.90;;;;;;5006290;28;20188;-69
2022/06/15 01:08:06;;;;;;;751.50;707.80;;;15.60;99.90;;;;;;5012602;28;20301;-68
2022/06/15 01:10:40;;;;;;;752.42;710.05;;;15.70;99.90;;;;;;5003230;28;20225;-69
2022/06/15 01:13:36;;;;;;;730.20;689.95;;;15.70;99.90;;;;;;5006127;28;20191;-68
2022/06/15 01:16:11;;;;;;;766.45;721.72;;;15.60;99.90;;;;;;5000563;28;20263;-68
2022/06/15 01:19:11;;;;;;;776.65;731.42;;;15.50;99.90;;;;;;5010685;28;20241;-68
2022/06/15 01:22:17;;;;;;;745.15;703.38;;;15.50;99.90;;;;;;4989462;28;20558;-72
2022/06/15 01:25:40;;;;;;;774.42;729.33;;;15.40;99.90;;;;;;4963422;28;20201;-73
2022/06/15 01:28:18;;;;;;;813.97;765.13;;;15.40;99.90;;;;;;4924296;29;20222;-70
2022/06/15 01:30:58;;;;;;;744.30;702.42;;;15.30;99.90;;;;;;4918527;29;20277;-70
2022/06/15 01:33:57;;;;;;;763.72;718.72;;;15.40;99.90;;;;;;4993200;28;20224;-72
2022/06/15 01:36:42;;;;;;;685.63;647.88;;;15.30;99.90;;;;;;4998794;28;20269;-72
2022/06/15 01:39:28;;;;;;;656.00;620.83;;;15.30;99.90;;;;;;5014209;28;20222;-73
2022/06/15 01:42:25;;;;;;;654.20;619.03;;;15.40;99.90;;;;;;5013396;28;20186;-74
2022/06/15 01:44:55;;;;;;;558.60;530.22;;;15.30;99.90;;;;;;4990332;28;20195;-74
2022/06/15 01:47:25;;;;;;;555.78;528.88;;;15.30;99.90;;;;;;5011787;28;20175;-74
2022/06/15 01:49:57;;;;;;;626.83;594.13;;;15.30;99.90;;;;;;4990006;28;20187;-75
2022/06/15 01:52:30;;;;;;;599.13;568.53;;;15.30;99.90;;;;;;5006854;28;20682;-74
2022/06/15 01:55:05;;;;;;;570.70;541.35;;;15.20;99.90;;;;;;5005868;28;20633;-73
2022/06/15 01:57:33;;;;;;;479.88;457.38;;;15.10;99.90;;;;;;5003693;28;20199;-74
2022/06/15 02:00:11;;;;;;;528.63;503.02;;;15.10;99.90;;;;;;5003517;28;20738;-72
2022/06/15 02:03:14;;;;;;;450.13;428.27;;;15.10;99.90;;;;;;4980221;28;20218;-74
2022/06/15 02:06:04;;;;;;;482.92;460.73;;;15.00;99.90;;;;;;5011561;28;20190;-72
2022/06/15 02:08:55;;;;;;;449.67;428.17;;;15.00;99.90;;;;;;5009554;28;20202;-74
2022/06/15 02:11:29;;;;;;;357.27;341.00;;;15.00;99.90;;;;;;4999881;28;20256;-73
2022/06/15 02:14:17;;;;;;;337.85;323.40;;;15.00;99.90;;;;;;4999345;28;20187;-76
2022/06/15 02:16:59;;;;;;;280.20;267.67;;;14.90;99.90;;;;;;5013442;28;20231;-77
2022/06/15 02:19:33;;;;;;;258.48;247.55;;;14.80;99.90;;;;;;5020190;28;20214;-76
2022/06/15 02:22:05;;;;;;;279.90;268.45;;;14.80;99.90;;;;;;5004034;28;20183;-76
2022/06/15 02:24:32;;;;;;;223.25;214.23;;;14.80;99.90;;;;;;5006407;28;20186;-76
2022/06/15 02:26:59;;;;;;;179.23;172.07;;;14.70;99.90;;;;;;5012552;28;20187;-71
2022/06/15 02:29:27;;;;;;;181.02;173.77;;;14.70;99.90;;;;;;5011099;28;20193;-70
2022/06/15 02:31:56;;;;;;;121.22;115.97;;;14.60;99.90;;;;;;5012198;28;20183;-73
2022/06/15 02:34:22;;;;;;;157.48;151.35;;;14.60;99.90;;;;;;5008163;28;20550;-70
2022/06/15 02:36:48;;;;;;;148.00;142.50;;;14.50;99.90;;;;;;5012345;28;20193;-76
2022/06/15 02:39:14;;;;;;;159.77;153.52;;;14.50;99.90;;;;;;4979271;28;20187;-70
2022/06/15 02:41:39;;;;;;;158.38;152.10;;;14.40;99.90;;;;;;5012835;28;20536;-70
2022/06/15 02:44:08;;;;;;;177.15;170.13;;;14.40;99.90;;;;;;4985513;28;20206;-74
2022/06/15 02:46:40;;;;;;;137.88;132.18;;;14.40;99.90;;;;;;5004829;28;20188;-70
2022/06/15 02:49:06;;;;;;;161.35;154.82;;;14.40;99.90;;;;;;5003847;28;20713;-70
2022/06/15 02:51:41;;;;;;;163.40;157.27;;;14.40;99.90;;;;;;4994877;28;20233;-70
2022/06/15 02:54:24;;;;;;;228.52;219.45;;;14.40;99.90;;;;;;4991960;28;20218;-70
2022/06/15 02:56:50;;;;;;;208.13;199.93;;;14.30;99.90;;;;;;5006816;28;20203;-70
2022/06/15 02:59:17;;;;;;;219.65;210.88;;;14.40;99.90;;;;;;5012558;28;20180;-70
2022/06/15 03:01:43;;;;;;;261.35;250.77;;;14.40;99.90;;;;;;5012284;28;20179;-70
2022/06/15 03:04:09;;;;;;;246.88;236.82;;;14.30;99.90;;;;;;4995010;28;20678;-70
2022/06/15 03:06:35;;;;;;;296.25;283.45;;;14.30;99.90;;;;;;5006338;28;20253;-70
2022/06/15 03:09:00;;;;;;;277.90;266.48;;;14.30;99.90;;;;;;5010466;28;20729;-70
2022/06/15 03:11:27;;;;;;;258.63;248.05;;;14.20;99.90;;;;;;4977992;28;20644;-70
2022/06/15 03:13:54;;;;;;;273.92;261.70;;;14.10;99.90;;;;;;4993700;28;20183;-74
2022/06/15 03:16:20;;;;;;;198.35;190.50;;;14.10;99.90;;;;;;4994903;28;20274;-69
2022/06/15 03:18:46;;;;;;;171.13;164.60;;;14.10;99.90;;;;;;4991610;28;20241;-70
2022/06/15 03:21:13;;;;;;;188.90;181.10;;;14.10;99.90;;;;;;4986956;28;20192;-70
2022/06/15 03:23:39;;;;;;;180.07;173.07;;;14.00;99.90;;;;;;5009666;28;20245;-70
2022/06/15 03:26:05;;;;;;;193.10;185.38;;;14.00;99.90;;;;;;4993293;28;20237;-74
2022/06/15 03:28:31;;;;;;;169.18;162.38;;;14.00;99.90;;;;;;4993094;28;20253;-70
2022/06/15 03:30:57;;;;;;;141.40;136.15;;;14.00;99.90;;;;;;5012464;28;20191;-70
2022/06/15 03:33:23;;;;;;;173.68;166.85;;;14.00;99.90;;;;;;4991981;28;20735;-70
2022/06/15 03:35:49;;;;;;;156.02;150.05;;;14.00;99.90;;;;;;4998033;28;20183;-69
2022/06/15 03:38:15;;;;;;;173.80;167.05;;;14.00;99.90;;;;;;4994848;28;20222;-70
2022/06/15 03:40:43;;;;;;;163.45;156.65;;;13.90;99.90;;;;;;5005871;28;20183;-70
2022/06/15 03:43:10;;;;;;;170.43;163.98;;;14.00;99.90;;;;;;4997480;28;20176;-70
2022/06/15 03:45:36;;;;;;;172.30;165.15;;;14.00;99.90;;;;;;5015802;28;20188;-74
2022/06/15 03:48:03;;;;;;;168.02;161.73;;;14.10;99.90;;;;;;5016196;28;20577;-69
2022/06/15 03:50:34;;;;;;;172.40;165.60;;;14.10;99.90;;;;;;4982416;28;20179;-71
2022/06/15 03:53:01;;;;;;;179.98;172.75;;;14.10;99.90;;;;;;5016641;28;20192;-71
2022/06/15 03:55:31;;;;;;;188.15;180.75;;;14.10;99.90;;;;;;5008623;28;20218;-72
2022/06/15 03:57:57;;;;;;;182.95;176.15;;;14.10;99.90;;;;;;5015246;28;20549;-76
2022/06/15 04:00:28;;;;;;;167.38;160.65;;;14.10;99.90;;;;;;5010850;28;20187;-75
2022/06/15 04:02:54;;;;;;;148.07;142.40;;;14.20;99.90;;;;;;4996971;28;20290;-75
2022/06/15 04:05:32;;;;;;;154.93;148.88;;;14.20;99.90;;;;;;5015366;28;20184;-74
2022/06/15 04:10:42;;;;;;;161.40;155.43;;;14.20;99.90;;;;;;4994344;28;20322;-71
2022/06/15 04:13:09;;;;;;;149.43;143.68;;;14.20;99.90;;;;;;4981144;28;20249;-77
2022/06/15 04:15:35;;;;;;;154.50;148.30;;;14.20;99.90;;;;;;4980302;28;20191;-77
2022/06/15 04:18:01;;;;;;;157.73;151.75;;;14.20;99.90;;;;;;4991887;28;20250;-76
2022/06/15 04:20:33;;;;;;;164.30;158.10;;;14.30;99.90;;;;;;5012607;28;20215;-74
2022/06/15 04:23:08;;;;;;;158.55;152.35;;;14.30;99.90;;;;;;4992329;28;20184;-74
2022/06/15 04:25:38;;;;;;;176.35;169.57;;;14.50;99.90;;;;;;5014410;28;20181;-75
2022/06/15 04:28:05;;;;;;;146.57;140.73;;;14.80;99.90;;;;;;5009071;28;20195;-75
2022/06/15 04:30:31;;;;;;;127.78;122.88;;;14.90;99.90;;;;;;4990999;28;20244;-75
2022/06/15 04:32:57;;;;;;;163.88;157.40;;;14.80;99.90;;;;;;5010497;28;20191;-75
2022/06/15 04:35:23;;;;;;;146.95;141.02;;;14.60;99.90;;;;;;5012072;28;20207;-77
2022/06/15 04:37:49;;;;;;;127.43;122.30;;;14.60;99.90;;;;;;4995496;28;20227;-73
2022/06/15 04:40:15;;;;;;;134.02;128.63;;;14.50;99.90;;;;;;4979269;28;20873;-76
2022/06/15 04:42:42;;;;;;;139.75;134.57;;;14.50;99.90;;;;;;4996170;28;20187;-77
2022/06/15 04:45:09;;;;;;;150.88;145.07;;;14.60;99.90;;;;;;4990901;28;20657;-78
2022/06/15 04:47:35;;;;;;;148.50;142.80;;;14.80;99.90;;;;;;5013746;28;20195;-75
2022/06/15 04:50:01;;;;;;;147.43;141.63;;;14.80;99.90;;;;;;4996670;28;20253;-78
2022/06/15 04:52:27;;;;;;;138.95;133.60;;;14.70;99.90;;;;;;4996056;28;20207;-77
2022/06/15 04:54:53;;;;;;;146.65;140.60;;;14.70;99.90;;;;;;4985578;28;20183;-77
2022/06/15 04:57:18;;;;;;;145.02;139.45;;;14.90;99.90;;;;;;5010813;28;20282;-73
2022/06/15 04:59:44;;;;;;;147.48;141.82;;;14.80;99.90;;;;;;4992450;28;20253;-76
2022/06/15 05:02:13;;;;;;;158.40;152.02;;;14.70;99.90;;;;;;5012173;28;20581;-72
2022/06/15 05:04:38;;;;;;;165.43;158.90;;;14.70;99.90;;;;;;4994947;28;20183;-73
2022/06/15 05:07:04;;;;;;;159.75;153.60;;;14.90;99.90;;;;;;4987356;28;20192;-73
2022/06/15 05:09:30;;;;;;;169.30;162.80;;;14.80;99.90;;;;;;4978278;28;20183;-72
2022/06/15 05:11:56;;;;;;;153.00;147.00;;;14.70;99.90;;;;;;5010976;28;20267;-73
2022/06/15 05:14:21;;;;;;;143.52;137.70;;;14.60;99.90;;;;;;4990563;28;20616;-75
2022/06/15 05:16:47;;;;;;;161.25;155.05;;;14.50;99.90;;;;;;5007131;28;20195;-73
2022/06/15 05:19:13;;;;;;;163.07;156.80;;;14.60;99.90;;;;;;4990699;28;20718;-73
2022/06/15 05:21:41;;;;;;;173.32;166.57;;;14.60;99.90;;;;;;5004193;28;20624;-74
2022/06/15 05:24:07;;;;;;;202.63;194.55;;;14.80;99.90;;;;;;5012995;28;20180;-73
2022/06/15 05:26:32;;;;;;;200.15;192.43;;;15.00;99.90;;;;;;4987911;28;20224;-73
2022/06/15 05:28:58;;;;;;;211.80;202.85;;;15.20;99.90;;;;;;4973880;28;20195;-73
2022/06/15 05:31:24;;;;;;;217.35;208.88;;;15.10;99.90;;;;;;5010572;28;20180;-72
2022/06/15 05:33:55;;;;;;;192.85;185.40;;;15.00;99.90;;;;;;5014065;28;20190;-71
2022/06/15 05:36:30;;;;;;;195.40;187.90;;;14.90;99.90;;;;;;4996261;28;20383;-72
2022/06/15 05:38:56;;;;;;;192.10;184.75;;;15.00;99.90;;;;;;5007967;28;20674;-73
2022/06/15 05:41:22;;;;;;;190.90;182.95;;;15.00;99.90;;;;;;5012736;28;20202;-73
2022/06/15 05:43:59;;;;;;;179.73;172.45;;;15.00;99.90;;;;;;5012965;28;20179;-73
2022/06/15 05:46:30;;;;;;;174.73;167.98;;;15.00;99.90;;;;;;5014918;28;20183;-74
2022/06/15 05:48:57;;;;;;;168.98;162.25;;;15.10;99.90;;;;;;4995518;28;20546;-75
2022/06/15 05:51:23;;;;;;;206.93;198.30;;;15.30;99.90;;;;;;4995195;28;21321;-72
2022/06/15 05:53:48;;;;;;;219.02;210.60;;;15.40;99.90;;;;;;4994718;28;20226;-73
2022/06/15 05:56:15;;;;;;;235.32;225.55;;;15.50;99.90;;;;;;5009474;28;20550;-70
2022/06/15 05:58:41;;;;;;;204.20;195.85;;;15.50;99.90;;;;;;5012573;28;20226;-70
2022/06/15 06:01:12;;;;;;;206.02;198.00;;;15.50;99.90;;;;;;4995558;28;20191;-70
2022/06/15 06:03:38;;;;;;;201.68;193.88;;;15.70;99.90;;;;;;5012985;28;20690;-70
2022/06/15 06:06:04;;;;;;;201.75;193.60;;;15.70;99.90;;;;;;5013236;28;20202;-71
2022/06/15 06:08:31;;;;;;;193.55;186.13;;;15.80;99.90;;;;;;5008729;28;20192;-71
2022/06/15 06:10:57;;;;;;;192.45;184.95;;;15.90;99.90;;;;;;4999275;28;20194;-70
2022/06/15 06:13:23;;;;;;;179.63;172.63;;;15.80;99.90;;;;;;5005744;28;20192;-71
2022/06/15 06:15:48;;;;;;;157.65;151.30;;;15.80;99.90;;;;;;5007028;28;20636;-69
2022/06/15 06:18:14;;;;;;;141.70;135.98;;;15.90;99.90;;;;;;4984760;28;20215;-70
2022/06/15 06:20:40;;;;;;;133.07;127.80;;;15.90;99.90;;;;;;5012543;28;20191;-71
2022/06/15 06:23:05;;;;;;;183.80;176.20;;;16.00;99.90;;;;;;4983825;28;20652;-70
2022/06/15 06:25:31;;;;;;;121.72;116.55;;;16.10;99.90;;;;;;4987390;28;20188;-69
2022/06/15 06:27:57;;;;;;;129.50;124.30;;;16.20;99.90;;;;;;5009008;28;20195;-70
2022/06/15 06:30:22;;;;;;;144.50;138.73;;;16.20;99.90;;;;;;4974853;28;20223;-70
2022/06/15 06:32:49;;;;;;;144.02;138.02;;;16.30;99.90;;;;;;4984960;28;20184;-70
2022/06/15 06:35:15;;;;;;;136.60;130.75;;;16.60;99.90;;;;;;5011490;28;20195;-70
2022/06/15 06:37:41;;;;;;;116.88;111.88;;;16.80;99.90;;;;;;4991968;28;20210;-71
2022/06/15 06:40:11;;;;;;;154.35;148.32;;;17.10;99.90;;;;;;4992456;28;20191;-69
2022/06/15 06:42:37;;;;;;;215.07;206.88;;;18.10;99.90;;;;;;4994458;28;20655;-70
2022/06/15 06:45:03;;;;;;;282.20;270.73;;;19.50;99.90;;;;;;4979754;28;20197;-70
2022/06/15 06:47:29;;;;;;;540.92;515.65;;;21.00;99.90;;;;;;4996407;28;20595;-70
2022/06/15 06:49:55;;;;;;;728.47;687.38;;;22.30;99.90;;;;;;5006697;28;20237;-70
2022/06/15 06:52:24;;;;;;;1723.30;957.97;;;23.90;99.90;;;;;;4993143;28;20652;-72
2022/06/15 06:54:50;;;;;;;1999.90;999.90;;;24.30;99.90;;;;;;4981328;28;20198;-71
2022/06/15 06:57:15;;;;;;;1999.90;999.90;;;24.90;99.90;;;;;;5004104;28;20259;-71
2022/06/15 06:59:41;;;;;;;1999.90;999.90;;;25.90;99.90;;;;;;5011678;28;20186;-72
2022/06/15 07:02:09;;;;;;;1999.90;999.90;;;26.20;99.90;;;;;;4990606;28;20553;-71
2022/06/15 07:04:35;;;;;;;1999.90;999.90;;;27.70;99.90;;;;;;4992466;28;20191;-71
2022/06/15 07:07:00;;;;;;;1999.90;999.90;;;27.40;99.90;;;;;;4994275;28;20182;-71
2022/06/15 07:09:27;;;;;;;1999.90;999.90;;;27.90;99.90;;;;;;5011764;28;20655;-74
2022/06/15 07:11:53;;;;;;;1999.90;999.90;;;28.60;99.90;;;;;;5003101;28;20191;-74
2022/06/15 07:14:19;;;;;;;1999.90;999.90;;;29.50;99.90;;;;;;4948825;28;20193;-74
2022/06/15 07:16:44;;;;;;;1999.90;999.90;;;30.40;99.90;;;;;;4994589;28;20175;-74
2022/06/15 07:19:11;;;;;;;1999.90;999.90;;;31.20;99.90;;;;;;4990476;28;20229;-75
2022/06/15 07:21:38;;;;;;;1999.90;999.90;;;32.10;99.90;;;;;;4999651;28;20182;-75
2022/06/15 07:24:04;;;;;;;1999.90;999.90;;;31.70;99.90;;;;;;4981802;28;20207;-74
2022/06/15 07:26:34;;;;;;;1999.90;999.90;;;31.80;99.90;;;;;;4978763;28;20187;-73
2022/06/15 07:29:00;;;;;;;1999.90;999.90;;;31.30;99.90;;;;;;5012273;28;20198;-73
2022/06/15 07:31:36;;;;;;;1999.90;999.90;;;32.10;99.90;;;;;;5011642;28;20191;-73
2022/06/15 07:34:03;;;;;;;1999.90;999.90;;;32.80;99.90;;;;;;4990966;28;20543;-73
2022/06/15 07:36:29;;;;;;;1999.90;999.90;;;32.30;99.90;;;;;;4997024;28;20190;-73
2022/06/15 07:38:57;;;;;;;1999.90;999.90;;;30.90;99.90;;;;;;5011590;28;20215;-73
2022/06/15 07:41:25;;;;;;;1999.90;999.90;;;31.60;99.90;;;;;;5012311;28;20187;-73
2022/06/15 07:43:51;;;;;;;1999.90;999.90;;;32.20;99.90;;;;;;5011268;28;20647;-74
2022/06/15 07:46:17;;;;;;;1999.90;999.90;;;32.60;99.90;;;;;;4978796;28;20217;-74
2022/06/15 07:51:34;;;;;;;1999.90;999.90;;;32.30;99.90;;;;;;5012392;28;20233;-73
2022/06/15 07:54:02;;;;;;;1999.90;999.90;;;31.30;99.90;;;;;;4999207;28;20227;-74
2022/06/15 07:56:28;;;;;;;1999.90;999.90;;;31.30;99.90;;;;;;5000425;28;20183;-74
2022/06/15 07:58:54;;;;;;;1999.90;999.90;;;30.90;99.90;;;;;;5012112;28;20223;-73
2022/06/15 08:01:20;;;;;;;1999.90;999.90;;;30.80;99.90;;;;;;5011527;28;20221;-72
2022/06/15 08:03:46;;;;;;;1999.90;999.90;;;30.30;99.90;;;;;;5012016;28;20248;-73
2022/06/15 08:06:13;;;;;;;1999.90;999.90;;;29.60;99.90;;;;;;5011772;28;20556;-74
2022/06/15 08:08:39;;;;;;;1999.90;999.90;;;29.80;99.90;;;;;;5011219;28;20201;-73
2022/06/15 08:11:05;;;;;;;1999.90;999.90;;;29.50;99.90;;;;;;4982027;28;20183;-72
2022/06/15 08:13:31;;;;;;;1999.90;999.90;;;29.70;99.90;;;;;;4983433;28;20547;-73
2022/06/15 08:15:58;;;;;;;1999.90;999.90;;;29.00;99.90;;;;;;4975259;28;20268;-74
2022/06/15 08:18:28;;;;;;;1999.90;999.90;;;29.60;99.90;;;;;;5009509;28;20219;-73
2022/06/15 08:21:01;;;;;;;1999.90;999.90;;;31.00;99.90;;;;;;5014779;28;20663;-72
2022/06/15 08:23:31;;;;;;;1999.90;999.90;;;30.40;99.90;;;;;;5015247;28;20186;-73
2022/06/15 08:26:01;;;;;;;1999.90;999.90;;;30.40;99.90;;;;;;5015381;28;20667;-73
2022/06/15 08:28:32;;;;;;;1999.90;999.90;;;31.70;99.90;;;;;;5013140;28;20222;-73
2022/06/15 08:30:58;;;;;;;1999.90;999.90;;;32.40;99.90;;;;;;5015103;28;20189;-73
2022/06/15 08:33:25;;;;;;;1999.90;999.90;;;32.70;99.90;;;;;;5004628;28;20666;-73
2022/06/15 08:35:51;;;;;;;1999.90;999.90;;;32.10;99.90;;;;;;5010530;28;20241;-73
2022/06/15 08:38:18;;;;;;;1999.90;999.90;;;32.40;99.90;;;;;;4992541;28;20314;-73
2022/06/15 08:41:03;;;;;;;1999.90;999.90;;;31.70;99.90;;;;;;5008100;28;20185;-74
2022/06/15 08:43:52;;;;;;;1999.90;999.90;;;31.00;99.90;;;;;;5014578;28;20174;-73
2022/06/15 08:46:30;;;;;;;1999.90;999.90;;;31.50;99.90;;;;;;5007279;28;20186;-74
2022/06/15 08:49:12;;;;;;;1999.90;999.90;;;32.50;99.90;;;;;;5009975;28;20263;-73
2022/06/15 08:51:41;;;;;;;1999.90;999.90;;;31.70;99.90;;;;;;5007868;28;20281;-77
2022/06/15 08:54:17;;;;;;;1999.90;999.90;;;31.60;99.90;;;;;;5002800;28;20220;-74
2022/06/15 08:56:52;;;;;;;1999.90;999.90;;;31.60;99.90;;;;;;5007423;28;20688;-74
2022/06/15 08:59:36;;;;;;;1999.90;999.90;;;32.10;99.90;;;;;;5008097;28;20221;-74
2022/06/15 09:02:04;;;;;;;1999.90;999.90;;;31.90;99.90;;;;;;5005130;28;20289;-73
2022/06/15 09:04:48;;;;;;;1999.90;999.90;;;31.20;99.90;;;;;;5010834;28;20217;-73
2022/06/15 09:07:46;;;;;;;1999.90;999.90;;;30.60;99.90;;;;;;5014955;28;20639;-73
2022/06/15 09:10:32;;;;;;;1999.90;999.90;;;29.90;99.90;;;;;;5014373;28;20661;-74
2022/06/15 09:13:16;;;;;;;1999.90;999.90;;;30.10;99.90;;;;;;5010242;28;20183;-73
2022/06/15 09:16:03;;;;;;;1999.90;999.90;;;29.60;99.90;;;;;;4990343;28;20186;-74
2022/06/15 09:18:36;;;;;;;1999.90;999.90;;;29.50;99.90;;;;;;5010048;28;20341;-73
2022/06/15 09:21:07;;;;;;;1999.90;999.90;;;29.40;99.90;;;;;;5008326;28;20183;-74
2022/06/15 09:23:48;;;;;;;1999.90;999.90;;;30.00;99.90;;;;;;5009587;28;20278;-72
2022/06/15 09:26:34;;;;;;;1999.90;999.90;;;30.30;99.90;;;;;;5009136;28;20190;-72
2022/06/15 09:29:07;;;;;;;1999.90;999.90;;;29.00;99.90;;;;;;5021478;28;20273;-73
2022/06/15 09:31:44;;;;;;;1999.90;999.90;;;28.90;99.90;;;;;;5011809;28;20233;-74
2022/06/15 09:34:22;;;;;;;1999.90;999.90;;;29.50;99.90;;;;;;5010582;28;20174;-73
2022/06/15 09:36:52;;;;;;;1999.90;999.90;;;28.50;99.90;;;;;;5027214;28;20649;-71
2022/06/15 09:39:19;;;;;;;1999.90;999.90;;;27.10;99.90;;;;;;5005470;28;20210;-72
2022/06/15 09:42:09;;;;;;;1999.90;999.90;;;26.40;99.90;;;;;;5013073;28;20203;-73
2022/06/15 09:44:59;;;;;;;1999.90;999.90;;;26.20;99.90;;;;;;5011270;28;20639;-72
2022/06/15 09:47:48;;;;;;;1999.90;999.90;;;26.10;99.90;;;;;;4999977;28;20631;-71
2022/06/15 09:50:14;;;;;;;1999.90;999.90;;;25.90;99.90;;;;;;5008392;28;20239;-72
2022/06/15 09:53:18;;;;;;;1999.90;999.90;;;25.40;99.90;;;;;;4995984;28;20743;-70
2022/06/15 09:55:56;;;;;;;1999.90;999.90;;;25.00;99.90;;;;;;4992306;28;20191;-71
2022/06/15 09:58:26;;;;;;;1999.90;999.90;;;24.70;99.90;;;;;;5012625;28;20229;-70
2022/06/15 10:00:52;;;;;;;1999.90;999.90;;;24.90;99.90;;;;;;4988312;28;20184;-72
2022/06/15 10:03:35;;;;;;;1999.90;999.90;;;24.80;99.90;;;;;;4995793;28;20183;-70
2022/06/15 10:06:16;;;;;;;1999.90;999.90;;;24.70;99.90;;;;;;5012995;28;20191;-72
2022/06/15 10:08:44;;;;;;;1999.90;999.90;;;24.70;99.90;;;;;;5009309;28;20658;-72
2022/06/15 10:11:27;;;;;;;1999.90;999.90;;;24.80;99.90;;;;;;5005683;28;20175;-72
2022/06/15 10:13:53;;;;;;;1999.90;999.90;;;24.80;99.90;;;;;;4993971;28;20194;-72
2022/06/15 10:16:31;;;;;;;1999.90;999.90;;;25.10;99.90;;;;;;4978796;28;20187;-71
2022/06/15 10:18:59;;;;;;;1999.90;999.90;;;25.10;99.90;;;;;;5006856;28;20634;-72
2022/06/15 10:21:29;;;;;;;1999.90;999.90;;;24.90;99.90;;;;;;4994938;28;20210;-72
2022/06/15 10:24:03;;;;;;;1999.90;999.90;;;25.00;99.90;;;;;;4989193;28;20179;-72
2022/06/15 10:26:35;;;;;;;1999.90;999.90;;;25.10;99.90;;;;;;4994109;28;20250;-72
2022/06/15 10:29:16;;;;;;;1999.90;999.90;;;24.90;99.90;;;;;;5011820;28;20214;-72
2022/06/15 10:32:00;;;;;;;1999.90;999.90;;;24.80;99.90;;;;;;5009349;28;20187;-72
2022/06/15 10:34:30;;;;;;;1999.90;999.90;;;25.10;99.90;;;;;;4996200;28;20191;-72
2022/06/15 10:37:06;;;;;;;1999.90;999.90;;;25.30;99.90;;;;;;5008573;28;20205;-72
2022/06/15 10:39:36;;;;;;;1999.90;999.90;;;25.40;99.90;;;;;;5012921;28;20187;-73
2022/06/15 10:42:07;;;;;;;1999.90;999.90;;;25.50;99.90;;;;;;4977654;28;20218;-72
2022/06/15 10:44:35;;;;;;;1999.90;999.90;;;25.50;99.90;;;;;;5001568;28;20179;-71
2022/06/15 10:47:37;;;;;;;1999.90;999.90;;;25.40;99.90;;;;;;5010986;28;20596;-71
2022/06/15 10:50:15;;;;;;;1999.90;999.90;;;25.10;99.90;;;;;;4990751;28;20203;-72
2022/06/15 10:52:46;;;;;;;1999.90;999.90;;;24.90;99.90;;;;;;4996887;28;20278;-72
2022/06/15 11:04:05;;;;;;;1999.90;999.90;;;25.40;99.90;;;;;;4994119;28;20207;-73
2022/06/15 11:06:52;;;;;;;1999.90;999.90;;;25.50;99.90;;;;;;5011354;28;20647;-73
2022/06/15 11:09:29;;;;;;;1999.90;999.90;;;25.50;99.90;;;;;;5005501;28;20215;-70
2022/06/15 11:12:00;;;;;;;1999.90;999.90;;;25.80;99.90;;;;;;5009271;28;20262;-73
2022/06/15 11:14:32;;;;;;;1999.90;999.90;;;25.80;99.90;;;;;;5009338;28;20206;-72
2022/06/15 11:20:18;;;;;;;1999.90;999.90;;;25.70;99.90;;;;;;4964381;28;20261;-73
2022/06/15 11:22:48;;;;;;;1999.90;999.90;;;25.40;99.90;;;;;;4992499;28;20218;-73
2022/06/15 11:25:20;;;;;;;1999.90;999.90;;;25.50;99.90;;;;;;4988106;28;20613;-73
2022/06/15 11:27:52;;;;;;;1999.90;999.90;;;25.30;99.90;;;;;;4991047;28;20231;-73
2022/06/15 11:30:17;;;;;;;1999.90;999.90;;;25.40;99.90;;;;;;4999885;28;20179;-73
2022/06/15 11:33:00;;;;;;;1999.90;999.90;;;25.50;99.90;;;;;;5012454;28;20249;-73
2022/06/15 11:35:38;;;;;;;1999.90;999.90;;;25.50;99.90;;;;;;5008501;28;20518;-72
2022/06/15 11:38:43;;;;;;;1999.90;999.90;;;25.60;99.90;;;;;;5011844;28;20210;-71
2022/06/15 11:42:00;;;;;;;1999.90;999.90;;;26.00;99.90;;;;;;5005173;28;20547;-70
2022/06/15 11:44:29;;;;;;;1999.90;999.90;;;26.00;99.90;;;;;;4959525;28;20203;-70
2022/06/15 11:47:16;;;;;;;1999.90;999.90;;;26.20;99.90;;;;;;5007935;28;20176;-70
2022/06/15 11:50:11;;;;;;;1999.90;999.90;;;26.10;99.90;;;;;;5011652;28;20183;-70
2022/06/15 11:53:07;;;;;;;1999.90;999.90;;;26.00;99.90;;;;;;5010565;28;20199;-73
2022/06/15 11:55:56;;;;;;;1999.90;999.90;;;25.90;99.90;;;;;;5008700;28;20183;-71
2022/06/15 11:58:56;;;;;;;1999.90;999.90;;;25.80;99.90;;;;;;4997397;28;20276;-71
2022/06/15 12:01:57;;;;;;;1999.90;999.90;;;25.80;99.90;;;;;;5009633;28;20266;-71
2022/06/15 12:04:46;;;;;;;1999.90;999.90;;;26.00;99.90;;;;;;5012585;28;20222;-72
2022/06/15 12:07:29;;;;;;;1999.90;999.90;;;26.00;99.90;;;;;;5008078;28;20179;-72
2022/06/15 12:10:37;;;;;;;1999.90;999.90;;;26.00;99.90;;;;;;5015477;28;20717;-72
2022/06/15 12:13:05;;;;;;;1999.90;999.90;;;25.70;99.90;;;;;;5014000;28;20721;-72
2022/06/15 12:15:41;;;;;;;1999.90;999.90;;;25.70;99.90;;;;;;5015064;28;20183;-72
2022/06/15 12:18:28;;;;;;;1999.90;999.90;;;25.80;99.90;;;;;;4997457;28;20264;-74
2022/06/15 12:21:22;;;;;;;1999.90;999.90;;;26.10;99.90;;;;;;5011563;28;20543;-72
2022/06/15 12:24:12;;;;;;;1999.90;999.90;;;26.10;99.90;;;;;;4995429;28;20664;-72
2022/06/15 12:26:52;;;;;;;1999.90;999.90;;;26.20;99.90;;;;;;5005111;28;20197;-72
2022/06/15 12:29:36;;;;;;;1999.90;999.90;;;26.30;99.90;;;;;;5015057;28;20190;-72
2022/06/15 12:32:27;;;;;;;1999.90;999.90;;;26.10;99.90;;;;;;4988507;28;20199;-72
2022/06/15 12:35:27;;;;;;;1999.90;999.90;;;26.20;99.90;;;;;;5013624;28;20528;-72
2022/06/15 12:37:58;;;;;;;1999.90;999.90;;;26.30;99.90;;;;;;4973485;28;20699;-72
2022/06/15 12:40:39;;;;;;;1999.90;999.90;;;26.00;99.90;;;;;;5012907;28;20282;-71
2022/06/15 12:43:14;;;;;;;1999.90;999.90;;;25.70;99.90;;;;;;5005661;28;20183;-72
2022/06/15 12:45:51;;;;;;;1999.90;999.90;;;25.50;99.90;;;;;;5010573;28;20175;-72
2022/06/15 12:48:49;;;;;;;1999.90;999.90;;;25.50;99.90;;;;;;4989890;28;20179;-72